地図

経路データ

SID SEASON NUMBER BASIN SUBBASIN NAME ISO_TIME NATURE LAT LON WMO_WIND WMO_PRES WMO_AGENCY TRACK_TYPE DIST2LAND LANDFALL IFLAG USA_AGENCY USA_ATCF_ID USA_LAT USA_LON USA_RECORD USA_STATUS USA_WIND USA_PRES USA_SSHS USA_R34_NE USA_R34_SE USA_R34_SW USA_R34_NW USA_R50_NE USA_R50_SE USA_R50_SW USA_R50_NW USA_R64_NE USA_R64_SE USA_R64_SW USA_R64_NW USA_POCI USA_ROCI USA_RMW USA_EYE TOKYO_LAT TOKYO_LON TOKYO_GRADE TOKYO_WIND TOKYO_PRES TOKYO_R50_DIR TOKYO_R50_LONG TOKYO_R50_SHORT TOKYO_R30_DIR TOKYO_R30_LONG TOKYO_R30_SHORT TOKYO_LAND CMA_LAT CMA_LON CMA_CAT CMA_WIND CMA_PRES HKO_LAT HKO_LON HKO_CAT HKO_WIND HKO_PRES NEWDELHI_LAT NEWDELHI_LON NEWDELHI_GRADE NEWDELHI_WIND NEWDELHI_PRES NEWDELHI_CI NEWDELHI_DP NEWDELHI_POCI REUNION_LAT REUNION_LON REUNION_TYPE REUNION_WIND REUNION_PRES REUNION_TNUM REUNION_CI REUNION_RMW REUNION_R34_NE REUNION_R34_SE REUNION_R34_SW REUNION_R34_NW REUNION_R50_NE REUNION_R50_SE REUNION_R50_SW REUNION_R50_NW REUNION_R64_NE REUNION_R64_SE REUNION_R64_SW REUNION_R64_NW BOM_LAT BOM_LON BOM_TYPE BOM_WIND BOM_PRES BOM_TNUM BOM_CI BOM_RMW BOM_R34_NE BOM_R34_SE BOM_R34_SW BOM_R34_NW BOM_R50_NE BOM_R50_SE BOM_R50_SW BOM_R50_NW BOM_R64_NE BOM_R64_SE BOM_R64_SW BOM_R64_NW BOM_ROCI BOM_POCI BOM_EYE BOM_POS_METHOD BOM_PRES_METHOD NADI_LAT NADI_LON NADI_CAT NADI_WIND NADI_PRES WELLINGTON_LAT WELLINGTON_LON WELLINGTON_WIND WELLINGTON_PRES DS824_LAT DS824_LON DS824_STAGE DS824_WIND DS824_PRES TD9636_LAT TD9636_LON TD9636_STAGE TD9636_WIND TD9636_PRES TD9635_LAT TD9635_LON TD9635_WIND TD9635_PRES TD9635_ROCI NEUMANN_LAT NEUMANN_LON NEUMANN_CLASS NEUMANN_WIND NEUMANN_PRES MLC_LAT MLC_LON MLC_CLASS MLC_WIND MLC_PRES USA_GUST BOM_GUST BOM_GUST_PER REUNION_GUST REUNION_GUST_PER USA_SEAHGT USA_SEARAD_NE USA_SEARAD_SE USA_SEARAD_SW USA_SEARAD_NW STORM_SPEED STORM_DIR
1986007S07080 1986 3 SI MM DELIFINA 1986-01-07 00:00:00 TS -7.20000 79.5000 main 1473 1471 O___________O_ jtwc_sh SH051986 -7.20000 79.5000 25 -1 -7.20000 79.5000 TC 25 5 99
1986007S07080 1986 3 SI MM DELIFINA 1986-01-07 03:00:00 TS -7.24253 79.7575 main 1470 1470 P___________P_ SH051986 -7.24253 79.7575 25 -1 -7.24253 79.7575 TC 25 5 101
1986007S07080 1986 3 SI MM DELIFINA 1986-01-07 06:00:00 TS -7.30000 80.0000 main 1480 1480 O___________O_ jtwc_sh SH051986 -7.30000 80.0000 25 -1 -7.30000 80.0000 TC 25 5 107
1986007S07080 1986 3 SI MM DELIFINA 1986-01-07 09:00:00 TS -7.38499 80.2150 main 1491 1490 P___________P_ SH051986 -7.38499 80.2150 27 -1 -7.38499 80.2150 TC 27 4 117
1986007S07080 1986 3 SI MM DELIFINA 1986-01-07 12:00:00 TS -7.50000 80.4000 main 1501 1501 O___________O_ jtwc_sh SH051986 -7.50000 80.4000 30 -1 -7.50000 80.4000 TC 30 4 127
1986007S07080 1986 3 SI MM DELIFINA 1986-01-07 15:00:00 TS -7.64249 80.5575 main 1512 1512 P___________P_ SH051986 -7.64249 80.5575 30 -1 -7.64249 80.5575 TC 30 4 136
1986007S07080 1986 3 SI MM DELIFINA 1986-01-07 18:00:00 TS -7.80000 80.7000 main 1535 1535 O___________O_ jtwc_sh SH051986 -7.80000 80.7000 30 -1 -7.80000 80.7000 TC 30 4 136
1986007S07080 1986 3 SI MM DELIFINA 1986-01-07 21:00:00 TS -7.94249 80.8500 main 1546 1546 P___________P_ SH051986 -7.94249 80.8500 32 -1 -7.94249 80.8500 TC 32 4 136
1986007S07080 1986 3 SI MM DELIFINA 1986-01-08 00:00:00 TS -8.10000 81.0000 main 1569 1569 O___________O_ jtwc_sh SH051986 -8.10000 81.0000 35 0 -8.10000 81.0000 TC 35 5 139
1986007S07080 1986 3 SI MM DELIFINA 1986-01-08 03:00:00 TS -8.29250 81.1575 main 1592 1592 P___________P_ SH051986 -8.29250 81.1575 37 0 -8.29250 81.1575 TC 37 5 144
1986007S07080 1986 3 SI MM DELIFINA 1986-01-08 06:00:00 TS -8.50000 81.3000 main 1615 1615 O___________O_ jtwc_sh SH051986 -8.50000 81.3000 40 0 -8.50000 81.3000 TC 40 5 149
1986007S07080 1986 3 SI MM DELIFINA 1986-01-08 09:00:00 TS -8.69999 81.4075 main 1638 1638 P___________P_ SH051986 -8.69999 81.4075 42 0 -8.69999 81.4075 TC 42 4 154
1986007S07080 1986 3 SI MM DELIFINA 1986-01-08 12:00:00 TS -8.90000 81.5000 main 1661 1661 O___________O_ jtwc_sh SH051986 -8.90000 81.5000 45 0 -8.90000 81.5000 TC 45 5 153
1986007S07080 1986 3 SI MM DELIFINA 1986-01-08 15:00:00 TS -9.10001 81.6150 main 1684 1684 P___________P_ SH051986 -9.10001 81.6150 47 0 -9.10001 81.6150 TC 47 4 154
1986007S07080 1986 3 SI MM DELIFINA 1986-01-08 18:00:00 TS -9.30000 81.7000 main 1707 1707 O___________O_ jtwc_sh SH051986 -9.30000 81.7000 50 0 -9.30000 81.7000 TC 50 4 167
1986007S07080 1986 3 SI MM DELIFINA 1986-01-08 21:00:00 TS -9.50000 81.7150 main 1729 1729 P___________P_ SH051986 -9.50000 81.7150 52 0 -9.50000 81.7150 TC 52 4 0
1986007S07080 1986 3 SI MM DELIFINA 1986-01-09 00:00:00 TS -9.70000 81.7000 main 1752 1752 O___________O_ jtwc_sh SH051986 -9.70000 81.7000 55 0 -9.70000 81.7000 TC 55 4 0
1986007S07080 1986 3 SI MM DELIFINA 1986-01-09 03:00:00 TS -9.90749 81.7150 main 1774 1774 P___________P_ SH051986 -9.90749 81.7150 57 0 -9.90749 81.7150 TC 57 4 0
1986007S07080 1986 3 SI MM DELIFINA 1986-01-09 06:00:00 TS -10.1000 81.7000 main 1796 1796 O___________O_ jtwc_sh SH051986 -10.1000 81.7000 60 0 -10.1000 81.7000 TC 60 4 194
1986007S07080 1986 3 SI MM DELIFINA 1986-01-09 09:00:00 TS -10.2650 81.6225 main 1818 1818 P___________P_ SH051986 -10.2650 81.6225 62 0 -10.2650 81.6225 TC 62 4 213
1986007S07080 1986 3 SI MM DELIFINA 1986-01-09 12:00:00 TS -10.4000 81.5000 main 1829 1828 O___________O_ jtwc_sh SH051986 -10.4000 81.5000 65 1 -10.4000 81.5000 TC 65 4 227
1986007S07080 1986 3 SI MM DELIFINA 1986-01-09 15:00:00 TS -10.5075 81.3575 main 1839 1839 P___________P_ SH051986 -10.5075 81.3575 65 1 -10.5075 81.3575 TC 65 4 236
1986007S07080 1986 3 SI MM DELIFINA 1986-01-09 18:00:00 TS -10.6000 81.2000 main 1850 1849 O___________O_ jtwc_sh SH051986 -10.6000 81.2000 65 1 -10.6000 81.2000 TC 65 4 239
1986007S07080 1986 3 SI MM DELIFINA 1986-01-09 21:00:00 TS -10.7000 81.0350 main 1860 1860 P___________P_ SH051986 -10.7000 81.0350 65 1 -10.7000 81.0350 TC 65 4 236
1986007S07080 1986 3 SI MM DELIFINA 1986-01-10 00:00:00 TS -10.8000 80.9000 main 1871 1871 O___________O_ jtwc_sh SH051986 -10.8000 80.9000 65 1 -10.8000 80.9000 TC 65 3 226
1986007S07080 1986 3 SI MM DELIFINA 1986-01-10 03:00:00 TS -10.8925 80.8350 main 1882 1882 P___________P_ SH051986 -10.8925 80.8350 65 1 -10.8925 80.8350 TC 65 2 147
1986007S07080 1986 3 SI MM DELIFINA 1986-01-10 06:00:00 TS -10.9900 81.0300 main 1894 1894 O____O____O_O_ jtwc_sh SH051986 -11.0000 80.8000 65 1 -11.0000 82.0000 3 36 991 3.00000 3.00000 -10.9000 81.9000 2 40 -11.0000 80.8000 TC 65 2 130
1986007S07080 1986 3 SI MM DELIFINA 1986-01-10 09:00:00 TS -11.0441 81.0143 main 1894 1893 P____P____P_P_ SH051986 -11.1500 80.7575 67 1 -10.9372 81.6152 3 36 991 -10.7037 81.3800 2 41 -11.1500 80.7575 TC 67 2 254
1986007S07080 1986 3 SI MM DELIFINA 1986-01-10 12:00:00 TS -11.0353 80.8712 main 1893 1893 O____O____P_O_ jtwc_sh SH051986 -11.3000 80.7000 70 1 -10.8000 81.2000 3 36 991 3.00000 3.00000 -10.5355 80.8783 2 42 -11.3000 80.7000 TC 70 4 262
1986007S07080 1986 3 SI MM DELIFINA 1986-01-10 15:00:00 TS -11.0976 80.6226 main 1904 1904 P____P____P_P_ SH051986 -11.4000 80.6075 70 1 -10.5512 80.7419 3 36 991 -10.4245 80.4126 2 43 -11.4000 80.6075 TC 70 5 242
1986007S07080 1986 3 SI MM DELIFINA 1986-01-10 18:00:00 TS -11.2700 80.4300 main 1927 1927 O____O____O_O_ jtwc_sh SH051986 -11.5000 80.5000 70 1 -10.3000 80.3000 3 36 991 3.00000 3.00000 -10.4000 80.0000 2 45 -11.5000 80.5000 TC 70 6 202
1986007S07080 1986 3 SI MM DELIFINA 1986-01-10 21:00:00 TS -11.6425 80.4000 main 1960 1960 P____P____P_P_ SH051986 -11.6425 80.4000 72 1 -10.2721 79.9314 3 -10.4837 79.6545 2 -11.6425 80.4000 TC 72 5 193
1986007S07080 1986 3 SI MM DELIFINA 1986-01-11 00:00:00 TS -11.8000 80.3000 44 984 reunion main 1983 1983 O____P____P_O_ jtwc_sh SH051986 -11.8000 80.3000 75 1 -10.4109 79.6295 3 -10.6677 79.3767 2 -11.8000 80.3000 TC 75 4 215
1986007S07080 1986 3 SI MM DELIFINA 1986-01-11 03:00:00 TS -11.9425 80.1850 main 1994 1994 P____P____P_P_ SH051986 -11.9425 80.1850 75 1 -10.6885 79.3918 3 -10.9365 79.1638 2 -11.9425 80.1850 TC 75 4 213
1986007S07080 1986 3 SI MM DELIFINA 1986-01-11 06:00:00 TS -12.1000 80.1000 44 984 reunion main 2017 2017 O____P____P_O_ jtwc_sh SH051986 -12.1000 80.1000 75 1 -11.0769 79.2160 3 -11.2746 79.0136 2 -12.1000 80.1000 TC 75 4 199
1986007S07080 1986 3 SI MM DELIFINA 1986-01-11 09:00:00 TS -12.2775 80.0700 main 2039 2039 P____P____P_P_ SH051986 -12.2775 80.0700 77 1 -11.5482 79.0998 3 -11.6664 78.9236 2 -12.2775 80.0700 TC 77 4 0
1986007S07080 1986 3 SI MM DELIFINA 1986-01-11 12:00:00 TS -12.5000 80.1000 52 976 reunion main 2062 2062 O____P____P_O_ jtwc_sh SH051986 -12.5000 80.1000 80 1 -12.0742 79.0414 3 -12.0964 78.8917 2 -12.5000 80.1000 TC 80 5 167
1986007S07080 1986 3 SI MM DELIFINA 1986-01-11 15:00:00 TS -12.7850 80.1850 main 2095 2095 P____P____P_P_ SH051986 -12.7850 80.1850 80 1 -12.6268 79.0389 3 -12.5490 78.9158 2 -12.7850 80.1850 TC 80 6 162
1986007S07080 1986 3 SI MM DELIFINA 1986-01-11 18:00:00 TS -13.1000 80.3000 52 976 reunion main 2128 2128 O____P____P_O_ jtwc_sh SH051986 -13.1000 80.3000 80 1 -13.1778 79.0906 3 -13.0083 78.9936 2 -13.1000 80.3000 TC 80 7 161
1986007S07080 1986 3 SI MM DELIFINA 1986-01-11 21:00:00 TS -13.4075 80.4000 main 2162 2162 P____P____P_P_ SH051986 -13.4075 80.4000 82 1 -13.6988 79.1945 3 -13.4589 79.1232 2 -13.4075 80.4000 TC 82 6 162
1986007S07080 1986 3 SI MM DELIFINA 1986-01-12 00:00:00 TS -13.7000 80.5000 52 976 reunion main 2195 2195 O____P____P_O_ jtwc_sh SH051986 -13.7000 80.5000 85 2 -14.1616 79.3487 3 -13.8848 79.3023 2 -13.7000 80.5000 TC 85 6 183
1986007S07080 1986 3 SI MM DELIFINA 1986-01-12 03:00:00 TS -14.0382 80.3643 main 2229 2229 P____P____P_P_ SH051986 -13.9500 80.6075 85 2 -14.5381 79.5513 3 -14.2704 79.5287 2 -13.9500 80.6075 TC 85 7 188
1986007S07080 1986 3 SI MM DELIFINA 1986-01-12 06:00:00 TS -14.3667 80.4000 52 976 reunion main 2274 2274 O____O____O_O_ jtwc_sh SH051986 -14.2000 80.7000 85 2 -14.8000 79.8000 3 52 976 4.00000 4.00000 -14.6000 79.8000 2 60 -14.2000 80.7000 TC 85 6 168
1986007S07080 1986 3 SI MM DELIFINA 1986-01-12 09:00:00 TS -14.6551 80.5016 main 2307 2307 P____P____P_P_ SH051986 -14.4850 80.7575 87 2 -14.9113 80.0860 3 52 976 -14.7916 80.1485 2 62 -14.4850 80.7575 TC 87 6 156
1986007S07080 1986 3 SI MM DELIFINA 1986-01-12 12:00:00 TS -14.9000 80.6476 main 2330 2330 O____O____P_O_ jtwc_sh SH051986 -14.8000 80.8000 90 2 -15.0000 80.4000 3 52 976 4.00000 4.00000 -14.9719 80.5310 2 65 -14.8000 80.8000 TC 90 6 146
1986007S07080 1986 3 SI MM DELIFINA 1986-01-12 15:00:00 TS -15.1303 80.8345 main 2352 2352 P____P____P_P_ SH051986 -15.1425 80.8500 92 2 -15.0550 80.7077 3 52 976 -15.1661 80.8980 2 67 -15.1425 80.8500 TC 92 6 146
1986007S07080 1986 3 SI MM DELIFINA 1986-01-12 18:00:00 TS -15.4000 81.0000 main 2386 2386 O____O____O_O_ jtwc_sh SH051986 -15.5000 80.9000 95 2 -15.2000 81.0000 3 52 976 4.00000 4.00000 -15.4000 81.2000 4 70 -15.5000 80.9000 TC 95 7 153
1986007S07080 1986 3 SI MM DELIFINA 1986-01-12 21:00:00 TS -15.7314 81.1549 main 2420 2420 P____P____P_P_ SH051986 -15.8500 80.9500 97 3 -15.5475 81.2873 3 57 971 -15.6781 81.4322 4 73 -15.8500 80.9500 TC 97 8 160
1986007S07080 1986 3 SI MM DELIFINA 1986-01-13 00:00:00 TS -16.1005 81.2716 main 2465 2465 O____O____P_O_ jtwc_sh SH051986 -16.2000 81.0000 100 3 -16.0000 81.5000 3 62 966 4.50000 4.50000 -16.0020 81.5864 4 77 -16.2000 81.0000 TC 100 8 167
1986007S07080 1986 3 SI MM DELIFINA 1986-01-13 03:00:00 TS -16.4737 81.3375 main 2510 2510 P____P____P_P_ SH051986 -16.5425 81.0426 102 3 -16.4349 81.6174 3 67 960 -16.3749 81.6474 4 81 -16.5425 81.0426 TC 102 8 174
1986007S07080 1986 3 SI MM DELIFINA 1986-01-13 06:00:00 TS -16.8750 81.3500 main 2513 2494 O____O____O_O_ jtwc_sh SH051986 -16.9000 81.1000 105 3 -16.9000 81.6000 4 72 954 5.00000 5.00000 -16.8000 81.6000 4 85 -16.9000 81.1000 TC 105 9 0
1986007S07080 1986 3 SI MM DELIFINA 1986-01-13 09:00:00 TS -17.3198 81.3110 main 2494 2473 P____P____P_P_ SH051986 -17.2925 81.1999 107 3 -17.4151 81.4303 4 72 954 -17.2791 81.4139 4 81 -17.2925 81.1999 TC 110 9 187
1986007S07080 1986 3 SI MM DELIFINA 1986-01-13 12:00:00 TS -17.7764 81.2317 main 2473 2465 O____O____P_O_ jtwc_sh SH051986 -17.7000 81.3000 110 3 -17.9000 81.2000 4 72 954 5.00000 5.00000 -17.8057 81.1270 4 77 -17.7000 81.3000 TC 115 933 9 190
1986007S07080 1986 3 SI MM DELIFINA 1986-01-13 15:00:00 TS -18.1954 81.1546 main 2465 2448 P____P____P_P_ SH051986 -18.0925 81.3725 110 3 -18.2424 81.0720 4 67 960 -18.3543 80.8013 4 73 -18.0925 81.3725 TC 115 933 9 191
1986007S07080 1986 3 SI MM DELIFINA 1986-01-13 18:00:00 TS -18.6250 81.0500 main 2448 2419 O____O____O_O_ jtwc_sh SH051986 -18.5000 81.4000 110 3 -18.6000 80.9000 3 62 966 4.50000 4.50000 -18.9000 80.5000 4 70 -18.5000 81.4000 TC 115 933 9 196
1986007S07080 1986 3 SI MM DELIFINA 1986-01-13 21:00:00 TS -19.1013 80.8852 main 2419 2392 P____P____P_P_ SH051986 -18.9425 81.3800 107 3 -19.1052 80.5430 3 57 971 -19.4150 80.2378 4 67 -18.9425 81.3800 TC 110 10 198
1986007S07080 1986 3 SI MM DELIFINA 1986-01-14 00:00:00 TS -19.6055 80.7054 main 2392 2377 O____O____P_O_ jtwc_sh SH051986 -19.4000 81.3000 105 3 -19.7000 80.2000 3 52 976 4.00000 4.00000 -19.9220 80.0217 4 65 -19.4000 81.3000 TC 105 11 196
1986007S07080 1986 3 SI MM DELIFINA 1986-01-14 03:00:00 TS -20.1207 80.5680 main 2377 2363 P____P____P_P_ SH051986 -19.8500 81.1725 105 3 -20.3649 80.0324 3 52 976 -20.4180 79.8946 4 62 -19.8500 81.1725 TC 105 10 192
1986007S07080 1986 3 SI MM DELIFINA 1986-01-14 06:00:00 TS -20.6250 80.4750 52 976 reunion main 2363 2350 O____O____O_O_ jtwc_sh SH051986 -20.3000 81.0000 105 3 -21.0000 80.0000 3 52 976 4.00000 4.00000 -20.9000 79.9000 2 60 -20.3000 81.0000 TC 105 10 188
1986007S07080 1986 3 SI MM DELIFINA 1986-01-14 09:00:00 TS -21.0988 80.4302 main 2350 2349 P____P____P_P_ SH051986 -20.7500 80.7926 102 3 -21.5098 80.0250 3 52 976 -21.3852 80.1105 2 58 -20.7500 80.7926 TC 102 9 181
1986007S07080 1986 3 SI MM DELIFINA 1986-01-14 12:00:00 TS -21.5384 80.4624 main 2359 2359 O____O____P_O_ jtwc_sh SH051986 -21.2000 80.6000 100 3 -21.9000 80.2000 3 52 976 4.00000 4.00000 -21.8535 80.4495 2 57 -21.2000 80.6000 TC 100 9 170
1986007S07080 1986 3 SI MM DELIFINA 1986-01-14 15:00:00 TS -21.9362 80.5947 main 2369 2369 P____P____P_P_ SH051986 -21.6425 80.4848 97 3 -22.1652 80.5701 3 52 976 -22.2948 80.8390 2 56 -21.6425 80.4848 TC 97 8 161
1986007S07080 1986 3 SI MM DELIFINA 1986-01-14 18:00:00 TS -22.3250 80.7500 main 2390 2390 O____O____O_O_ jtwc_sh SH051986 -22.1000 80.4000 95 2 -22.4000 81.0000 3 52 976 4.00000 4.00000 -22.7000 81.2000 2 55 -22.1000 80.4000 TC 95 8 165
1986007S07080 1986 3 SI MM DELIFINA 1986-01-14 21:00:00 TS -22.7370 80.8339 main 2391 2391 P____P____P_P_ SH051986 -22.6000 80.2851 92 2 -22.7199 81.3301 3 52 976 -23.0281 81.4354 2 53 -22.6000 80.2851 TC 92 8 170
1986007S07080 1986 3 SI MM DELIFINA 1986-01-15 00:00:00 TS -23.1568 80.9066 main 2404 2404 O____O____P_O_ jtwc_sh SH051986 -23.1000 80.2000 90 2 -23.1000 81.6000 3 52 976 4.00000 4.00000 -23.3272 81.6262 2 52 -23.1000 80.2000 TC 90 8 170
1986007S07080 1986 3 SI MM DELIFINA 1986-01-15 03:00:00 TS -23.5700 80.9891 main 2417 2417 P____P____P_P_ SH051986 -23.5575 80.1700 87 2 -23.5275 81.8375 3 48 980 -23.6376 81.7789 2 51 -23.5575 80.1700 TC 87 9 170
1986007S07080 1986 3 SI MM DELIFINA 1986-01-15 06:00:00 MX -24.0000 81.0750 main 2431 2431 O____O____O_O_ jtwc_sh SH051986 -24.0000 80.2000 85 2 -24.0000 82.0000 5 44 984 3.50000 3.50000 -24.0000 81.9000 2 50 -24.0000 80.2000 TC 85 9 171
1986007S07080 1986 3 SI MM DELIFINA 1986-01-15 09:00:00 MX -24.4795 81.1494 main 2436 2436 P____P____P_P_ SH051986 -24.4574 80.2626 80 1 -24.5075 82.0802 5 40 984 -24.4958 81.9922 2 -24.4574 80.2626 TC 80 10 171
1986007S07080 1986 3 SI MM DELIFINA 1986-01-15 12:00:00 MX -24.9606 81.2396 main 2453 2453 O____O____P_O_ jtwc_sh SH051986 -24.9000 80.4000 75 1 -25.0000 82.1000 5 36 984 3.00000 3.00000 -25.0423 82.0584 2 -24.9000 80.4000 TC 75 10 168
1986007S07080 1986 3 SI MM DELIFINA 1986-01-15 15:00:00 MX -25.4075 81.3595 main 2479 2479 P____P____P_P_ SH051986 -25.3150 80.6126 72 1 -25.4075 82.0927 5 36 -25.5927 82.1203 2 -25.3150 80.6126 TC 72 9 164
1986007S07080 1986 3 SI MM DELIFINA 1986-01-15 18:00:00 MX -25.8250 81.5250 main 2496 2496 O____O____O_O_ jtwc_sh SH051986 -25.7000 80.9000 70 1 -25.8000 82.1000 5 36 9.90000 -26.1000 82.2000 2 -25.7000 80.9000 TC 70 9 157
1986007S07080 1986 3 SI MM DELIFINA 1986-01-15 21:00:00 MX -26.2171 81.7317 main 2523 2523 P____P____P_P_ SH051986 -26.0650 81.2276 65 1 -26.2424 82.1627 5 36 -26.4961 82.3088 2 -26.0650 81.2276 TC 65 9 152
1986007S07080 1986 3 SI MM DELIFINA 1986-01-16 00:00:00 MX -26.5862 81.9853 main 2561 2561 O____O____P_O_ jtwc_sh SH051986 -26.4000 81.6000 60 0 -26.7000 82.3000 5 36 9.90000 -26.8447 82.4410 2 -26.4000 81.6000 TC 60 9 146
1986007S07080 1986 3 SI MM DELIFINA 1986-01-16 03:00:00 MX -26.9452 82.2769 main 2596 2596 P____P____P_P_ SH051986 -26.7149 81.9852 57 0 -27.1801 82.5347 5 36 -27.1710 82.6027 2 -26.7149 81.9852 TC 57 9 142
1986007S07080 1986 3 SI MM DELIFINA 1986-01-16 06:00:00 MX -27.3143 82.6286 main 2634 2617 O____O____O_O_ jtwc_sh SH051986 -27.0000 82.4000 55 0 -27.6000 82.8000 5 36 9.90000 -27.5000 82.8000 2 -27.0000 82.4000 TC 55 10 139
1986007S07080 1986 3 SI MM DELIFINA 1986-01-16 09:00:00 MX -27.6691 82.9738 main 2610 2586 P____P____P_P_ SH051986 -27.2578 82.8421 50 0 -27.8649 82.9930 5 36 -27.8846 83.0864 2 -27.2578 82.8421 TC 50 9 141
1986007S07080 1986 3 SI MM DELIFINA 1986-01-16 12:00:00 MX -28.0493 83.3001 main 2589 2548 O____O____P_O_ jtwc_sh SH051986 -27.5000 83.3000 45 0 -28.1000 83.2000 5 36 9.90000 -28.2733 83.4004 2 -27.5000 83.3000 TC 45 10 148
1986007S07080 1986 3 SI MM DELIFINA 1986-01-16 15:00:00 ET -28.5389 83.5983 main 2548 2515 _____P____P___ SH051986 -1 -28.4276 83.5073 5 36 -28.6502 83.6894 2 TC 10 150
1986007S07080 1986 3 SI MM DELIFINA 1986-01-16 18:00:00 ET -28.9000 83.8500 main 2519 2485 _____O____O___ -1 -28.8000 83.8000 5 36 9.90000 -29.0000 83.9000 2 9 151
1986007S07080 1986 3 SI MM DELIFINA 1986-01-16 21:00:00 ET -29.2860 84.0732 main 2485 2459 _____P____P___ -1 -29.2149 84.0099 5 36 -29.3570 84.1365 2 8 159
1986007S07080 1986 3 SI MM DELIFINA 1986-01-17 00:00:00 ET -29.6392 84.1818 main 2459 2428 _____O____P___ -1 -29.6000 84.1000 5 36 9.90000 -29.6785 84.2636 2 6 172
1986007S07080 1986 3 SI MM DELIFINA 1986-01-17 03:00:00 ET -29.9148 84.1744 main 2428 2396 _____P____P___ -1 -29.8938 84.1648 5 36 -29.9359 84.1841 2 5 212
1986007S07080 1986 3 SI MM DELIFINA 1986-01-17 06:00:00 ET -30.1000 83.8500 main 2396 2355 _____O____O___ -1 -30.1000 83.9000 5 36 9.90000 -30.1000 83.8000 1 10 251
1986007S07080 1986 3 SI MM DELIFINA 1986-01-17 09:00:00 ET -30.2494 83.0352 main 2351 2304 _____P____P___ -1 -30.2606 83.1010 5 36 -30.2382 82.9693 1 17 264
1986007S07080 1986 3 SI MM DELIFINA 1986-01-17 12:00:00 ET -30.2802 81.9234 main 2301 2274 _____O____P___ -1 -30.3000 82.0000 5 36 9.90000 -30.2604 81.8468 1 20 272
1986007S07080 1986 3 SI MM DELIFINA 1986-01-17 15:00:00 ET -30.1824 80.7770 main 2274 2263 _____P____P___ -1 -30.2388 80.9536 5 36 -30.1259 80.6004 1 20 281
1986007S07080 1986 3 SI MM DELIFINA 1986-01-17 18:00:00 ET -29.9000 79.6000 36 reunion main 2270 2267 _____O____O___ -1 -30.0000 79.8000 5 36 9.90000 -29.8000 79.4000 1 22 290
1986007S07080 1986 3 SI MM DELIFINA 1986-01-17 21:00:00 ET -29.3993 78.3520 main 2292 2177 _____P____P___ -1 -29.6295 78.4242 5 36 -29.1691 78.2798 1 24 301
1986007S07080 1986 3 SI MM DELIFINA 1986-01-18 00:00:00 TS -28.6867 77.2374 36 reunion main 2168 2070 _____O____P___ -1 -29.0000 77.2000 6 36 9.90000 -28.3733 77.2749 1 24 314
1986007S07080 1986 3 SI MM DELIFINA 1986-01-18 03:00:00 TS -27.7745 76.4226 main 2061 2005 _____P____P___ -1 -27.9835 76.3355 6 36 -27.5654 76.5096 1 20 329
1986007S07080 1986 3 SI MM DELIFINA 1986-01-18 06:00:00 TS -26.9500 76.0500 36 reunion main 2001 1988 _____O____O___ -1 -27.0000 76.0000 6 36 9.90000 -26.9000 76.1000 1 13 352
1986007S07080 1986 3 SI MM DELIFINA 1986-01-18 09:00:00 TS -26.4915 76.2152 main 1998 1998 _____P____P___ -1 -26.4575 76.2803 6 36 -26.5256 76.1502 1 9 41
1986007S07080 1986 3 SI MM DELIFINA 1986-01-18 12:00:00 TS -26.2604 76.7201 36 reunion main 2039 2039 _____O____P___ -1 -26.2000 76.9000 6 36 9.90000 -26.3208 76.5402 1 10 71
1986007S07080 1986 3 SI MM DELIFINA 1986-01-18 15:00:00 TS -26.1577 77.2885 main 2094 2094 _____P____P___ -1 -26.0600 77.4423 6 36 -26.2554 77.1347 1 11 87
1986007S07080 1986 3 SI MM DELIFINA 1986-01-18 18:00:00 TS -26.2000 77.9000 36 reunion main 2152 2152 _____O____O___ -1 -26.1000 78.0000 6 36 9.90000 -26.3000 77.8000 1 11 100
1986007S07080 1986 3 SI MM DELIFINA 1986-01-18 21:00:00 TS -26.3415 78.4675 main 2213 2213 _____P____P___ -1 -26.2547 78.5073 6 36 -26.4283 78.4276 1 11 110
1986007S07080 1986 3 SI MM DELIFINA 1986-01-19 00:00:00 TS -26.5592 79.0046 36 reunion main 2269 2269 _____O____P___ -1 -26.5000 79.0000 6 36 9.90000 -26.6184 79.0092 1 11 116
1986007S07080 1986 3 SI MM DELIFINA 1986-01-19 03:00:00 TS -26.8012 79.5293 main 2323 2323 _____P____P___ -1 -26.7529 79.4972 6 36 -26.8495 79.5613 1 11 118
1986007S07080 1986 3 SI MM DELIFINA 1986-01-19 06:00:00 TS -27.0500 80.0500 36 reunion main 2386 _____O____O___ -1 -27.0000 80.0000 6 36 9.90000 -27.1000 80.1000 1 11 118

IBTrACS Databaseについて

本データベースは、米国NOAAが公開する1842年以降の世界の熱帯低気圧のベストトラックデータアーカイブInternational Best Track Archive for Climate Stewardship (IBTrACS)を、ウェブで閲覧しやすい形式に変換したものです。

最終更新日:2021-10-19